Time;durP1;ratioP1;P1;durP2;ratioP2;P2;SDS_P1;SDS_P2;PMS_P1;PMS_P2;Temp;Humidity;BMP_temperature;BMP_pressure;BME280_temperature;BME280_humidity;BME280_pressure;Samples;Min_cycle;Max_cycle;Signal;HPM_P1;HPM_P2
2021/01/26 00:01:52;;;;;;;9.82;9.02;;;-1.10;71.20;;;;;;5197759;28;20049;-77
2021/01/26 00:04:23;;;;;;;9.35;8.65;;;-1.30;70.40;;;;;;5197541;28;20513;-75
2021/01/26 00:06:55;;;;;;;10.52;9.65;;;-1.30;70.20;;;;;;5197317;28;20048;-75
2021/01/26 00:09:26;;;;;;;9.65;8.85;;;-1.20;72.50;;;;;;5196381;28;20054;-74
2021/01/26 00:11:57;;;;;;;10.77;9.88;;;-1.20;73.10;;;;;;5194904;28;20398;-75
2021/01/26 00:14:29;;;;;;;10.52;9.63;;;-1.10;73.60;;;;;;5187300;28;20107;-75
2021/01/26 00:17:00;;;;;;;10.73;9.82;;;-1.10;73.80;;;;;;5195377;28;20515;-73
2021/01/26 00:19:32;;;;;;;10.70;9.80;;;-1.00;73.90;;;;;;5180399;28;20041;-76
2021/01/26 00:22:03;;;;;;;10.82;9.88;;;-1.00;74.30;;;;;;5195792;28;20057;-74
2021/01/26 00:24:36;;;;;;;10.45;9.60;;;-1.00;74.40;;;;;;5194553;28;20082;-75
2021/01/26 00:27:07;;;;;;;10.77;9.88;;;-1.00;74.30;;;;;;5196011;28;20045;-74
2021/01/26 00:29:39;;;;;;;10.98;10.07;;;-1.10;74.90;;;;;;5195439;28;20681;-73
2021/01/26 00:32:12;;;;;;;11.05;10.15;;;-1.00;74.80;;;;;;5193894;28;20057;-73
2021/01/26 00:34:43;;;;;;;10.82;9.93;;;-1.00;75.20;;;;;;5195537;28;20740;-74
2021/01/26 00:37:15;;;;;;;10.93;10.02;;;-1.00;75.40;;;;;;5195507;28;20045;-75
2021/01/26 00:39:46;;;;;;;10.57;9.68;;;-1.00;75.20;;;;;;5197843;28;20103;-76
2021/01/26 00:42:17;;;;;;;10.10;9.30;;;-1.00;75.80;;;;;;5185721;28;20073;-75
2021/01/26 00:44:50;;;;;;;10.25;9.35;;;-1.00;75.60;;;;;;5188680;28;20165;-75
2021/01/26 00:47:21;;;;;;;10.60;9.70;;;-1.00;75.50;;;;;;5193565;28;20099;-74
2021/01/26 00:49:53;;;;;;;10.70;9.80;;;-1.00;75.70;;;;;;5186833;28;20420;-74
2021/01/26 00:52:24;;;;;;;10.73;9.82;;;-1.10;76.00;;;;;;5195796;28;20051;-74
2021/01/26 00:54:59;;;;;;;11.10;10.20;;;-1.10;76.10;;;;;;5188707;28;20057;-75
2021/01/26 00:57:31;;;;;;;11.63;10.68;;;-1.00;76.20;;;;;;5195889;28;20038;-77
2021/01/26 01:00:10;;;;;;;10.90;10.00;;;-1.00;76.20;;;;;;5186007;28;20041;-74
2021/01/26 01:02:42;;;;;;;10.95;10.05;;;-1.10;76.50;;;;;;5207914;28;20048;-76
2021/01/26 01:05:14;;;;;;;10.68;9.77;;;-1.10;76.70;;;;;;5192786;28;20045;-75
2021/01/26 01:07:46;;;;;;;11.00;10.10;;;-1.10;76.70;;;;;;5196468;28;20041;-75
2021/01/26 01:10:21;;;;;;;11.38;10.48;;;-1.10;77.00;;;;;;5195563;28;20049;-78
2021/01/26 01:12:52;;;;;;;11.18;10.27;;;-1.10;76.80;;;;;;5197140;28;20041;-75
2021/01/26 01:15:25;;;;;;;11.27;10.38;;;-1.00;76.90;;;;;;5195937;28;20053;-76
2021/01/26 01:17:56;;;;;;;11.75;10.73;;;-1.00;76.60;;;;;;5182708;28;20061;-76
2021/01/26 01:20:28;;;;;;;11.68;10.68;;;-1.00;76.80;;;;;;5169972;28;20056;-77
2021/01/26 01:23:00;;;;;;;11.77;10.77;;;-0.90;76.60;;;;;;5194586;28;20122;-76
2021/01/26 01:25:31;;;;;;;12.13;11.13;;;-0.90;76.80;;;;;;5195607;28;20131;-76
2021/01/26 01:28:04;;;;;;;11.48;10.23;;;-0.80;76.60;;;;;;5195495;28;20071;-76
2021/01/26 01:30:35;;;;;;;11.48;10.48;;;-0.80;76.60;;;;;;5194406;28;20058;-75
2021/01/26 01:33:07;;;;;;;11.20;10.20;;;-0.80;76.60;;;;;;5198807;28;20080;-75
2021/01/26 01:35:38;;;;;;;10.65;9.75;;;-0.80;76.40;;;;;;5195268;28;20041;-76
2021/01/26 01:38:10;;;;;;;11.35;10.45;;;-0.80;76.30;;;;;;5196040;28;20057;-76
2021/01/26 01:40:42;;;;;;;11.00;10.10;;;-0.80;76.60;;;;;;5211513;28;20087;-76
2021/01/26 01:43:13;;;;;;;10.77;9.88;;;-0.80;76.50;;;;;;5191970;28;20118;-77
2021/01/26 01:45:44;;;;;;;11.30;10.40;;;-0.80;76.30;;;;;;5195508;28;20094;-76
2021/01/26 01:48:25;;;;;;;10.65;9.75;;;-0.80;76.10;;;;;;5177319;28;20046;-75
2021/01/26 01:51:06;;;;;;;11.13;10.23;;;-0.80;76.40;;;;;;5192684;28;20172;-76
2021/01/26 01:53:39;;;;;;;10.70;9.80;;;-0.90;76.60;;;;;;5184592;28;20750;-77
2021/01/26 01:56:18;;;;;;;11.00;10.10;;;-0.90;76.60;;;;;;5194417;28;20042;-76
2021/01/26 01:58:56;;;;;;;11.98;10.88;;;-0.90;76.30;;;;;;5196591;28;20120;-78
2021/01/26 02:01:29;;;;;;;11.38;10.48;;;-0.80;76.60;;;;;;5194908;28;20162;-78
2021/01/26 02:04:08;;;;;;;11.05;10.13;;;-0.90;76.60;;;;;;5195113;28;20050;-77
2021/01/26 02:06:42;;;;;;;11.80;10.80;;;-0.80;76.40;;;;;;5194633;28;20072;-76
2021/01/26 02:09:27;;;;;;;11.43;10.52;;;-0.80;77.40;;;;;;5193889;28;20064;-77
2021/01/26 02:11:59;;;;;;;11.13;10.20;;;-0.80;76.70;;;;;;5194397;28;20131;-76
2021/01/26 02:14:37;;;;;;;11.15;10.15;;;-0.80;76.70;;;;;;5209468;28;20052;-75
2021/01/26 02:17:17;;;;;;;11.70;10.70;;;-0.80;76.60;;;;;;5194399;28;20587;-76
2021/01/26 02:19:52;;;;;;;13.05;11.52;;;-0.80;76.80;;;;;;5194257;28;20065;-75
2021/01/26 02:22:35;;;;;;;11.48;10.48;;;-0.80;76.90;;;;;;5194134;28;20045;-75
2021/01/26 02:25:31;;;;;;;11.27;10.18;;;-0.80;77.00;;;;;;5191758;28;20158;-73
2021/01/26 02:28:03;;;;;;;11.10;10.20;;;-0.80;76.90;;;;;;5195545;28;20558;-76
2021/01/26 02:31:06;;;;;;;10.60;9.70;;;-0.90;77.40;;;;;;5191776;28;20484;-75
2021/01/26 02:34:05;;;;;;;11.00;10.10;;;-0.90;77.40;;;;;;5192125;28;20060;-75
2021/01/26 02:36:55;;;;;;;10.73;9.82;;;-0.80;77.10;;;;;;5195041;28;20045;-77
2021/01/26 02:39:50;;;;;;;10.10;9.30;;;-0.80;77.00;;;;;;5194593;28;20095;-76
2021/01/26 02:42:49;;;;;;;11.00;10.00;;;-0.80;76.80;;;;;;5180419;28;20878;-75
2021/01/26 02:45:42;;;;;;;11.30;10.18;;;-0.80;77.00;;;;;;5193217;28;20049;-75
2021/01/26 02:48:39;;;;;;;10.55;9.60;;;-0.80;77.00;;;;;;5195872;28;20038;-76
2021/01/26 02:51:35;;;;;;;10.90;9.73;;;-0.90;77.30;;;;;;5192977;28;20099;-75
2021/01/26 02:54:16;;;;;;;10.70;9.80;;;-0.80;77.20;;;;;;5193439;28;20069;-74
2021/01/26 02:57:06;;;;;;;10.32;9.52;;;-0.90;77.40;;;;;;5196811;28;20042;-76
2021/01/26 02:59:37;;;;;;;10.38;9.48;;;-0.80;77.20;;;;;;5197372;28;20061;-75
2021/01/26 03:02:20;;;;;;;11.57;10.35;;;-0.80;77.00;;;;;;5198147;28;20544;-75
2021/01/26 03:05:04;;;;;;;10.77;9.88;;;-0.80;77.00;;;;;;5198510;28;20049;-77
2021/01/26 03:07:49;;;;;;;9.85;9.05;;;-0.80;77.20;;;;;;5190854;28;20442;-75
2021/01/26 03:10:24;;;;;;;10.52;9.60;;;-0.80;77.00;;;;;;5197135;28;20103;-76
2021/01/26 03:13:04;;;;;;;10.05;9.25;;;-0.80;77.40;;;;;;5196410;28;20050;-75
2021/01/26 03:15:46;;;;;;;10.32;9.52;;;-0.70;77.40;;;;;;5197973;28;20073;-78
2021/01/26 03:18:22;;;;;;;10.60;9.70;;;-0.70;77.10;;;;;;5198720;28;20120;-75
2021/01/26 03:21:00;;;;;;;10.63;9.73;;;-0.70;77.40;;;;;;5198781;28;20042;-75
2021/01/26 03:23:42;;;;;;;10.20;9.40;;;-0.70;77.30;;;;;;5185723;28;20046;-77
2021/01/26 03:26:18;;;;;;;9.95;9.15;;;-0.70;77.30;;;;;;5197667;28;20049;-76
2021/01/26 03:28:54;;;;;;;10.25;9.40;;;-0.70;77.20;;;;;;5198856;28;20065;-75
2021/01/26 03:31:32;;;;;;;10.38;9.52;;;-0.80;77.30;;;;;;5197992;28;20520;-76
2021/01/26 03:34:04;;;;;;;10.23;9.43;;;-0.80;77.30;;;;;;5197362;28;20049;-76
2021/01/26 03:36:36;;;;;;;10.57;9.68;;;-0.80;77.20;;;;;;5194710;28;20048;-75
2021/01/26 03:39:09;;;;;;;10.18;9.38;;;-0.80;77.20;;;;;;5197309;28;20048;-75
2021/01/26 03:41:40;;;;;;;10.02;9.23;;;-0.80;77.40;;;;;;5197604;28;20049;-74
2021/01/26 03:44:13;;;;;;;10.88;9.98;;;-0.80;77.70;;;;;;5173660;28;20205;-74
2021/01/26 03:46:47;;;;;;;10.27;9.43;;;-0.80;77.90;;;;;;5197207;28;20053;-74
2021/01/26 03:50:01;;;;;;;10.10;9.30;;;-0.80;77.70;;;;;;5197342;28;20045;-77
2021/01/26 03:52:39;;;;;;;9.48;8.77;;;-0.80;78.10;;;;;;5195404;28;20045;-75
2021/01/26 03:55:27;;;;;;;10.10;9.30;;;-0.80;77.70;;;;;;5195740;28;20057;-76
2021/01/26 03:58:29;;;;;;;10.38;9.48;;;-0.80;77.80;;;;;;5197124;28;20504;-75
2021/01/26 04:01:35;;;;;;;10.65;9.85;;;-0.80;77.60;;;;;;5204290;28;20054;-76
2021/01/26 04:04:40;;;;;;;10.60;9.80;;;-0.80;77.90;;;;;;5212421;28;20053;-75
2021/01/26 04:07:29;;;;;;;11.40;9.70;;;-0.80;77.80;;;;;;5184693;28;20050;-76
2021/01/26 04:10:09;;;;;;;11.13;10.23;;;-0.80;77.70;;;;;;5195050;28;20057;-75
2021/01/26 04:12:45;;;;;;;10.77;9.88;;;-0.80;77.70;;;;;;5188519;28;20069;-74
2021/01/26 04:15:22;;;;;;;10.55;9.75;;;-0.80;77.80;;;;;;5196720;28;20111;-75
2021/01/26 04:17:54;;;;;;;10.80;10.00;;;-0.90;78.50;;;;;;5194468;28;20064;-75
2021/01/26 04:20:36;;;;;;;10.63;9.80;;;-0.80;77.90;;;;;;5196328;28;20445;-74
2021/01/26 04:23:11;;;;;;;10.93;10.02;;;-0.90;78.20;;;;;;5196668;28;20049;-75
2021/01/26 04:25:45;;;;;;;10.85;10.05;;;-0.90;78.20;;;;;;5189009;28;20572;-75
2021/01/26 04:28:37;;;;;;;11.18;10.27;;;-1.00;76.50;;;;;;5195452;28;20072;-75
2021/01/26 04:31:11;;;;;;;11.05;10.15;;;-1.30;75.60;;;;;;5196980;28;20053;-74
2021/01/26 04:33:43;;;;;;;11.45;10.55;;;-1.50;76.10;;;;;;5188129;28;20145;-74
2021/01/26 04:36:18;;;;;;;11.27;10.38;;;-1.50;74.20;;;;;;5195601;28;20049;-76
2021/01/26 04:38:50;;;;;;;10.98;10.07;;;-1.60;74.60;;;;;;5196258;28;20038;-75
2021/01/26 04:41:41;;;;;;;11.30;10.40;;;-1.70;72.80;;;;;;5192616;28;20049;-74
2021/01/26 04:44:48;;;;;;;11.40;10.50;;;-1.60;74.10;;;;;;5196391;28;20045;-73
2021/01/26 04:47:42;;;;;;;11.15;10.25;;;-1.60;73.60;;;;;;5179190;28;20068;-74
2021/01/26 04:50:32;;;;;;;11.07;10.18;;;-1.50;74.30;;;;;;5195223;28;20576;-72
2021/01/26 04:53:04;;;;;;;11.75;10.85;;;-1.50;74.40;;;;;;5196371;28;20045;-74
2021/01/26 04:56:13;;;;;;;10.75;9.85;;;-1.50;74.80;;;;;;5187403;28;20049;-73
2021/01/26 04:59:05;;;;;;;11.40;10.50;;;-1.40;74.60;;;;;;5195456;28;20069;-73
2021/01/26 05:02:14;;;;;;;10.75;9.80;;;-1.30;73.60;;;;;;5196759;28;20406;-74
2021/01/26 05:05:09;;;;;;;10.63;9.63;;;-1.30;71.60;;;;;;5192641;28;20095;-73
2021/01/26 05:07:50;;;;;;;11.20;10.30;;;-1.40;69.90;;;;;;5193370;28;20960;-73
2021/01/26 05:10:37;;;;;;;10.60;9.70;;;-1.30;72.50;;;;;;5199134;28;20049;-74
2021/01/26 05:13:46;;;;;;;10.38;9.52;;;-1.30;72.90;;;;;;5198722;28;20099;-73
2021/01/26 05:16:48;;;;;;;10.48;9.57;;;-1.40;72.00;;;;;;5171037;28;20034;-74
2021/01/26 05:19:28;;;;;;;10.85;9.95;;;-1.40;72.50;;;;;;5187689;28;21083;-74
2021/01/26 05:22:14;;;;;;;11.00;10.10;;;-1.40;73.60;;;;;;5194814;28;20046;-73
2021/01/26 05:25:06;;;;;;;11.27;10.38;;;-1.30;73.90;;;;;;5195775;28;20045;-72
2021/01/26 05:27:39;;;;;;;11.18;10.27;;;-1.30;73.90;;;;;;5195345;28;20065;-73
2021/01/26 05:30:28;;;;;;;10.80;9.93;;;-1.20;74.00;;;;;;5194551;28;20107;-74
2021/01/26 05:33:07;;;;;;;11.43;10.45;;;-1.20;74.10;;;;;;5198710;28;20060;-74
2021/01/26 05:35:48;;;;;;;11.38;10.40;;;-1.20;74.50;;;;;;5194496;28;20046;-73
2021/01/26 05:38:21;;;;;;;11.48;10.57;;;-1.30;74.90;;;;;;5196454;28;20140;-74
2021/01/26 05:40:58;;;;;;;11.60;10.60;;;-1.20;74.90;;;;;;5197936;28;20057;-74
2021/01/26 05:43:32;;;;;;;11.23;10.23;;;-1.20;74.80;;;;;;5196243;28;20467;-72
2021/01/26 05:46:09;;;;;;;10.90;10.00;;;-1.20;74.60;;;;;;5193621;28;20961;-75
2021/01/26 05:48:49;;;;;;;11.73;10.70;;;-1.10;74.60;;;;;;5186249;28;20029;-74
2021/01/26 05:51:24;;;;;;;12.25;11.02;;;-1.10;74.80;;;;;;5195926;28;20041;-74
2021/01/26 05:54:00;;;;;;;12.00;10.90;;;-1.20;75.10;;;;;;5194947;28;20041;-73
2021/01/26 05:56:33;;;;;;;11.55;10.50;;;-1.20;76.20;;;;;;5193644;28;20527;-73
2021/01/26 05:59:28;;;;;;;11.18;10.27;;;-1.30;76.70;;;;;;5197150;28;20034;-73
2021/01/26 06:02:15;;;;;;;11.57;10.50;;;-1.30;76.40;;;;;;5192810;28;20061;-73
2021/01/26 06:04:47;;;;;;;11.40;10.40;;;-1.30;76.70;;;;;;5193714;28;20546;-74
2021/01/26 06:07:22;;;;;;;11.10;10.15;;;-1.30;77.10;;;;;;5197262;28;20041;-74
2021/01/26 06:09:54;;;;;;;11.30;10.10;;;-1.40;76.70;;;;;;5196800;28;20294;-73
2021/01/26 06:12:27;;;;;;;11.45;10.45;;;-1.30;76.50;;;;;;5194093;28;20126;-71
2021/01/26 06:14:58;;;;;;;11.25;10.25;;;-1.30;76.20;;;;;;5193386;28;20111;-72
2021/01/26 06:17:34;;;;;;;12.45;11.35;;;-1.40;76.10;;;;;;5195150;28;20046;-72
2021/01/26 06:20:23;;;;;;;11.05;10.05;;;-1.30;76.20;;;;;;5189042;28;20757;-73
2021/01/26 06:23:10;;;;;;;12.68;11.35;;;-1.30;76.20;;;;;;5196232;28;20088;-75
2021/01/26 06:25:45;;;;;;;11.35;10.25;;;-1.30;76.60;;;;;;5193999;28;20041;-72
2021/01/26 06:28:38;;;;;;;11.07;10.07;;;-1.30;76.80;;;;;;5195207;28;20061;-72
2021/01/26 06:31:47;;;;;;;10.93;9.93;;;-1.30;75.80;;;;;;5183022;28;20068;-71
2021/01/26 06:34:29;;;;;;;11.77;10.60;;;-1.40;75.70;;;;;;5198050;28;20393;-72
2021/01/26 06:37:09;;;;;;;10.88;9.90;;;-1.30;75.90;;;;;;5193401;28;20045;-72
2021/01/26 06:39:56;;;;;;;10.32;9.43;;;-1.40;75.60;;;;;;5197832;28;20041;-71
2021/01/26 06:42:51;;;;;;;10.63;9.60;;;-1.60;74.10;;;;;;5199454;28;20072;-71
2021/01/26 06:46:15;;;;;;;9.90;9.00;;;-1.60;75.00;;;;;;5194184;28;20819;-72
2021/01/26 06:49:09;;;;;;;10.65;9.65;;;-1.70;72.30;;;;;;5188204;28;20052;-75
2021/01/26 06:52:20;;;;;;;9.60;8.70;;;-1.70;72.90;;;;;;5197532;28;20053;-73
2021/01/26 06:55:19;;;;;;;10.10;9.15;;;-1.60;73.90;;;;;;5196193;28;20095;-74
2021/01/26 06:58:15;;;;;;;10.23;9.23;;;-1.60;71.10;;;;;;5195119;28;20519;-72
2021/01/26 07:01:11;;;;;;;10.63;9.27;;;-1.60;71.80;;;;;;5185908;28;20142;-72
2021/01/26 07:03:58;;;;;;;9.20;8.30;;;-1.50;73.00;;;;;;5213171;28;20049;-71
2021/01/26 07:06:47;;;;;;;10.60;9.60;;;-1.50;72.30;;;;;;5197457;28;20038;-71
2021/01/26 07:09:42;;;;;;;10.38;9.43;;;-1.50;72.90;;;;;;5198575;28;20442;-73
2021/01/26 07:12:39;;;;;;;10.02;9.05;;;-1.40;72.40;;;;;;5198915;28;20455;-72
2021/01/26 07:15:16;;;;;;;9.30;8.40;;;-1.40;71.10;;;;;;5196804;28;20876;-74
2021/01/26 07:18:06;;;;;;;9.20;8.30;;;-1.60;70.70;;;;;;5199114;28;20041;-75
2021/01/26 07:20:44;;;;;;;8.70;7.90;;;-1.60;70.80;;;;;;5211632;28;20045;-72
2021/01/26 07:23:54;;;;;;;9.82;8.82;;;-1.70;70.20;;;;;;5198160;28;20052;-72
2021/01/26 07:27:03;;;;;;;9.50;8.60;;;-1.70;72.00;;;;;;5177521;28;20663;-72
2021/01/26 07:29:44;;;;;;;9.25;8.43;;;-1.60;71.60;;;;;;5196649;28;20050;-74
2021/01/26 07:32:15;;;;;;;;;;;-1.70;71.20;;;;;;5185592;28;20049;-72
2021/01/26 07:35:13;;;;;;;9.20;8.30;;;-1.60;70.80;;;;;;5197223;28;19925;-73
2021/01/26 07:38:02;;;;;;;9.27;8.43;;;-1.60;70.10;;;;;;5196654;28;20072;-72
2021/01/26 07:40:40;;;;;;;9.57;8.68;;;-1.70;70.00;;;;;;5197660;28;20052;-74
2021/01/26 07:43:26;;;;;;;9.40;8.52;;;-1.70;70.40;;;;;;5197846;28;20552;-73
2021/01/26 07:46:13;;;;;;;9.25;8.45;;;-1.60;67.80;;;;;;5195569;28;20092;-72
2021/01/26 07:49:18;;;;;;;9.02;8.23;;;-1.60;68.60;;;;;;5196490;28;20034;-73
2021/01/26 07:51:55;;;;;;;9.55;8.68;;;-1.60;69.40;;;;;;5193957;28;20064;-74
2021/01/26 07:54:50;;;;;;;9.32;8.52;;;-1.40;69.30;;;;;;5197818;28;20153;-75
2021/01/26 07:57:28;;;;;;;9.05;8.25;;;-1.40;67.70;;;;;;5196081;28;20065;-74
2021/01/26 08:00:01;;;;;;;9.30;8.50;;;-1.50;67.00;;;;;;5197375;28;20049;-73
2021/01/26 08:02:41;;;;;;;9.32;8.43;;;-1.60;68.90;;;;;;5197767;28;20788;-73
2021/01/26 08:05:17;;;;;;;9.05;8.25;;;-1.60;67.30;;;;;;5195722;28;20215;-72
2021/01/26 08:07:50;;;;;;;9.35;8.55;;;-1.70;67.20;;;;;;5197686;28;20331;-73
2021/01/26 08:10:24;;;;;;;9.07;8.18;;;-1.80;69.50;;;;;;5195972;28;20092;-72
2021/01/26 08:12:55;;;;;;;9.40;8.50;;;-1.90;66.30;;;;;;5172516;28;20061;-74
2021/01/26 08:15:26;;;;;;;9.27;8.38;;;-1.70;68.50;;;;;;5195081;28;23043;-72
2021/01/26 08:18:16;;;;;;;8.85;7.95;;;-1.60;66.40;;;;;;5188445;28;20049;-72
2021/01/26 08:20:48;;;;;;;8.32;7.53;;;-1.60;66.20;;;;;;5187411;28;20488;-74
2021/01/26 08:23:29;;;;;;;8.23;7.10;;;-1.50;66.70;;;;;;5196282;28;20045;-72
2021/01/26 08:26:17;;;;;;;8.32;7.32;;;-1.40;65.40;;;;;;5196672;28;20049;-73
2021/01/26 08:28:48;;;;;;;7.75;7.05;;;-1.30;63.60;;;;;;5196475;28;20041;-74
2021/01/26 08:31:32;;;;;;;8.35;7.55;;;-1.40;62.90;;;;;;5196867;28;20138;-74
2021/01/26 08:34:25;;;;;;;7.93;7.13;;;-1.40;62.30;;;;;;5197321;28;20115;-74
2021/01/26 08:37:20;;;;;;;7.68;6.97;;;-1.40;64.60;;;;;;5193984;28;20808;-73
2021/01/26 08:39:53;;;;;;;7.63;6.93;;;-1.40;64.70;;;;;;5197052;28;20094;-73
2021/01/26 08:42:44;;;;;;;8.00;7.20;;;-1.40;64.90;;;;;;5195484;28;20049;-72
2021/01/26 08:45:26;;;;;;;8.98;8.10;;;-1.40;65.50;;;;;;5195344;28;20196;-72
2021/01/26 08:47:57;;;;;;;7.82;7.00;;;-1.30;65.40;;;;;;5193526;28;20045;-72
2021/01/26 08:51:01;;;;;;;8.30;7.50;;;-1.20;62.90;;;;;;5194699;28;20045;-73
2021/01/26 08:53:36;;;;;;;9.95;8.02;;;-1.10;64.20;;;;;;5194356;28;20046;-74
2021/01/26 08:56:32;;;;;;;8.73;7.88;;;-1.20;64.50;;;;;;5187455;28;20052;-72
2021/01/26 08:59:06;;;;;;;7.82;7.13;;;-1.30;67.20;;;;;;5211689;28;20073;-74
2021/01/26 09:01:41;;;;;;;8.77;7.97;;;-1.30;66.90;;;;;;5209051;28;20049;-73
2021/01/26 09:04:12;;;;;;;8.45;7.55;;;-1.30;66.60;;;;;;5197048;28;20531;-72
2021/01/26 09:06:48;;;;;;;8.60;7.72;;;-1.30;67.40;;;;;;5195639;28;20038;-73
2021/01/26 09:09:23;;;;;;;8.60;7.80;;;-1.30;68.00;;;;;;5196924;28;20068;-73
2021/01/26 09:12:07;;;;;;;9.25;8.35;;;-1.50;67.90;;;;;;5196260;28;20042;-74
2021/01/26 09:14:44;;;;;;;8.60;7.70;;;-1.40;68.00;;;;;;5195425;28;20052;-74
2021/01/26 09:17:28;;;;;;;8.45;7.65;;;-1.30;68.10;;;;;;5194118;28;20049;-73
2021/01/26 09:20:20;;;;;;;9.27;8.02;;;-1.20;67.90;;;;;;5195114;28;20057;-72
2021/01/26 09:23:03;;;;;;;8.27;7.47;;;-1.00;68.40;;;;;;5195856;28;20073;-72
2021/01/26 09:25:45;;;;;;;8.73;7.93;;;-1.00;67.70;;;;;;5195563;28;20107;-74
2021/01/26 09:28:18;;;;;;;8.15;7.35;;;-1.00;66.30;;;;;;5195539;28;20805;-73
2021/01/26 09:30:58;;;;;;;8.30;7.50;;;-0.90;66.70;;;;;;5195690;28;20128;-73
2021/01/26 09:33:31;;;;;;;8.52;7.72;;;-0.90;66.70;;;;;;5193750;28;20124;-72
2021/01/26 09:36:03;;;;;;;8.23;7.43;;;-0.90;67.50;;;;;;5194451;28;20072;-75
2021/01/26 09:38:45;;;;;;;8.57;7.68;;;-0.90;67.60;;;;;;5195832;28;20110;-74
2021/01/26 09:41:26;;;;;;;8.68;7.88;;;-0.90;67.70;;;;;;5194397;28;20056;-74
2021/01/26 09:44:02;;;;;;;8.05;7.20;;;-0.80;67.90;;;;;;5194889;28;20065;-72
2021/01/26 09:46:46;;;;;;;7.68;6.97;;;-0.70;66.60;;;;;;5192522;28;20445;-72
2021/01/26 09:49:18;;;;;;;8.88;8.07;;;-0.80;66.60;;;;;;5195237;28;20034;-73
2021/01/26 09:52:07;;;;;;;8.77;7.90;;;-0.70;66.90;;;;;;5193124;28;20045;-73
2021/01/26 09:54:40;;;;;;;8.75;7.95;;;-0.70;68.00;;;;;;5194213;28;20042;-72
2021/01/26 09:57:18;;;;;;;8.70;7.80;;;-0.70;68.70;;;;;;5193673;28;20052;-72
2021/01/26 09:59:51;;;;;;;8.85;7.90;;;-0.90;68.00;;;;;;5196319;28;20045;-74
2021/01/26 10:02:24;;;;;;;8.90;8.00;;;-0.90;69.20;;;;;;5192171;28;20053;-72
2021/01/26 10:04:56;;;;;;;8.60;7.70;;;-0.90;69.40;;;;;;5195396;28;20120;-72
2021/01/26 10:07:28;;;;;;;8.23;7.53;;;-0.80;69.60;;;;;;5192567;28;20130;-72
2021/01/26 10:10:22;;;;;;;8.40;7.60;;;-0.70;69.30;;;;;;5193753;28;20041;-73
2021/01/26 10:12:53;;;;;;;8.18;7.38;;;-0.60;69.40;;;;;;5194746;28;20041;-72
2021/01/26 10:15:26;;;;;;;7.82;7.13;;;-0.40;68.10;;;;;;5194850;28;20120;-72
2021/01/26 10:18:08;;;;;;;7.88;7.15;;;-0.50;68.10;;;;;;5193648;28;20132;-73
2021/01/26 10:20:45;;;;;;;7.45;6.75;;;-0.60;68.00;;;;;;5195639;28;20045;-74
2021/01/26 10:23:28;;;;;;;7.65;6.95;;;-0.70;68.10;;;;;;5197151;28;20089;-74
2021/01/26 10:26:25;;;;;;;7.40;6.70;;;-0.80;67.90;;;;;;5192955;28;20080;-74
2021/01/26 10:29:06;;;;;;;7.43;6.72;;;-0.90;69.40;;;;;;5194461;28;20479;-72
2021/01/26 10:32:01;;;;;;;7.35;6.68;;;-0.90;68.20;;;;;;5169161;28;20092;-73
2021/01/26 10:34:42;;;;;;;7.63;6.90;;;-0.80;69.30;;;;;;5186487;28;20049;-74
2021/01/26 10:37:23;;;;;;;7.20;6.60;;;-0.50;68.10;;;;;;5186674;28;20061;-74
2021/01/26 10:40:27;;;;;;;7.70;7.00;;;-0.40;67.90;;;;;;5191861;28;20060;-73
2021/01/26 10:43:08;;;;;;;7.90;7.20;;;-0.30;66.20;;;;;;5187091;28;20080;-73
2021/01/26 10:45:49;;;;;;;7.88;7.18;;;-0.30;66.00;;;;;;5188252;28;20049;-73
2021/01/26 10:48:36;;;;;;;7.85;7.15;;;-0.30;65.60;;;;;;5195835;28;20048;-74
2021/01/26 10:51:29;;;;;;;7.65;7.03;;;-0.10;66.90;;;;;;5193914;28;20125;-73
2021/01/26 10:54:06;;;;;;;7.95;7.15;;;-0.40;65.20;;;;;;5194229;28;20048;-72
2021/01/26 10:56:38;;;;;;;8.32;7.53;;;-0.30;66.40;;;;;;5186444;28;20049;-74
2021/01/26 10:59:10;;;;;;;7.47;6.78;;;-0.10;66.60;;;;;;5194814;28;20094;-72
2021/01/26 11:01:43;;;;;;;7.85;7.03;;;0.10;66.90;;;;;;5183421;28;20052;-73
2021/01/26 11:04:16;;;;;;;8.88;6.88;;;0.20;65.80;;;;;;5210013;28;20042;-73
2021/01/26 11:06:48;;;;;;;7.95;7.20;;;0.40;66.50;;;;;;5193961;28;20107;-74
2021/01/26 11:09:20;;;;;;;8.40;7.60;;;0.60;65.80;;;;;;5193625;28;20042;-74
2021/01/26 11:11:51;;;;;;;9.23;7.70;;;0.70;63.80;;;;;;5194951;28;20041;-72
2021/01/26 11:14:23;;;;;;;9.27;8.38;;;0.90;66.20;;;;;;5154768;28;20054;-72
2021/01/26 11:16:54;;;;;;;8.88;8.07;;;1.10;64.80;;;;;;5193651;28;20041;-73
2021/01/26 11:19:28;;;;;;;9.38;8.50;;;1.20;64.20;;;;;;5199479;28;20121;-72
2021/01/26 11:22:03;;;;;;;9.77;8.77;;;1.20;62.80;;;;;;5197755;28;20053;-74
2021/01/26 11:24:34;;;;;;;9.82;8.88;;;1.20;64.40;;;;;;5211029;28;20509;-73
2021/01/26 11:27:06;;;;;;;9.30;8.40;;;1.30;64.30;;;;;;5197481;28;20464;-73
2021/01/26 11:29:37;;;;;;;9.23;8.40;;;1.30;62.90;;;;;;5197083;28;20096;-72
2021/01/26 11:32:09;;;;;;;10.10;9.10;;;1.40;61.70;;;;;;5190538;28;20099;-73
2021/01/26 11:34:40;;;;;;;9.52;8.70;;;1.40;63.90;;;;;;5194245;28;20179;-72
2021/01/26 11:37:12;;;;;;;9.10;8.30;;;1.50;63.70;;;;;;5195405;28;20103;-74
2021/01/26 11:39:44;;;;;;;8.98;8.07;;;1.50;63.60;;;;;;5191829;28;20076;-73
2021/01/26 11:42:15;;;;;;;7.82;7.10;;;1.40;60.90;;;;;;5195649;28;20064;-73
2021/01/26 11:44:48;;;;;;;8.43;7.63;;;1.20;63.10;;;;;;5197423;28;20050;-75
2021/01/26 11:47:19;;;;;;;8.48;7.68;;;1.10;62.50;;;;;;5197193;28;20100;-74
2021/01/26 11:49:51;;;;;;;8.38;7.68;;;0.80;63.60;;;;;;5198435;28;20048;-73
2021/01/26 11:52:22;;;;;;;12.45;9.13;;;1.00;63.50;;;;;;5194564;28;20273;-72
2021/01/26 11:54:54;;;;;;;12.02;10.77;;;0.90;63.60;;;;;;5195831;28;20072;-70
2021/01/26 11:57:25;;;;;;;9.13;8.32;;;0.90;65.10;;;;;;5199438;28;20041;-70
2021/01/26 11:59:58;;;;;;;14.57;11.85;;;0.90;65.60;;;;;;5194969;28;20088;-70
2021/01/26 12:02:29;;;;;;;9.27;8.48;;;0.90;66.20;;;;;;5196650;28;20511;-71
2021/01/26 12:05:04;;;;;;;8.27;7.57;;;0.90;66.20;;;;;;5198678;28;20053;-72
2021/01/26 12:07:36;;;;;;;8.07;7.38;;;1.10;65.70;;;;;;5188254;28;20061;-72
2021/01/26 12:10:08;;;;;;;8.98;7.80;;;1.20;65.40;;;;;;5193299;28;20552;-71
2021/01/26 12:12:40;;;;;;;9.20;8.27;;;1.30;66.10;;;;;;5198810;28;20660;-71
2021/01/26 12:15:21;;;;;;;10.15;8.88;;;1.30;65.10;;;;;;5195257;28;20119;-71
2021/01/26 12:17:53;;;;;;;10.77;9.70;;;1.30;64.90;;;;;;5186832;28;20046;-70
2021/01/26 12:20:27;;;;;;;10.65;9.65;;;1.40;65.90;;;;;;5193389;28;20047;-70
2021/01/26 12:22:59;;;;;;;10.40;9.38;;;1.50;65.40;;;;;;5192085;28;20369;-71
2021/01/26 12:25:33;;;;;;;9.82;8.93;;;1.60;65.70;;;;;;5193823;28;20501;-74
2021/01/26 12:28:05;;;;;;;10.27;9.38;;;1.80;65.50;;;;;;5200090;28;20045;-74
2021/01/26 12:30:37;;;;;;;11.55;10.43;;;1.80;65.50;;;;;;5193761;28;20150;-70
2021/01/26 12:33:08;;;;;;;10.90;9.80;;;1.90;66.30;;;;;;5192709;28;20045;-73
2021/01/26 12:35:40;;;;;;;9.60;8.68;;;2.00;64.60;;;;;;5191765;28;20136;-73
2021/01/26 12:38:11;;;;;;;11.82;10.43;;;2.10;64.40;;;;;;5187509;28;20049;-72
2021/01/26 12:40:43;;;;;;;9.80;8.80;;;2.20;65.00;;;;;;5193411;28;20053;-72
2021/01/26 12:43:15;;;;;;;10.00;9.10;;;2.20;65.10;;;;;;5196827;28;20579;-71
2021/01/26 12:45:47;;;;;;;10.73;9.73;;;2.10;63.40;;;;;;5194743;28;20056;-73
2021/01/26 12:48:18;;;;;;;9.18;8.30;;;2.00;64.60;;;;;;5193583;28;20055;-75
2021/01/26 12:50:50;;;;;;;9.02;8.23;;;1.80;63.20;;;;;;5193699;28;20508;-72
2021/01/26 12:53:21;;;;;;;10.20;9.20;;;1.50;64.30;;;;;;5194308;28;20107;-74
2021/01/26 12:55:53;;;;;;;9.43;8.70;;;1.40;65.10;;;;;;5192116;28;20287;-72
2021/01/26 12:58:25;;;;;;;10.07;9.18;;;1.40;65.10;;;;;;5193620;28;20463;-71
2021/01/26 13:00:57;;;;;;;11.60;10.48;;;1.50;64.10;;;;;;5210811;28;20540;-71
2021/01/26 13:03:28;;;;;;;37.97;20.40;;;1.30;64.60;;;;;;5197795;28;20091;-70
2021/01/26 13:06:00;;;;;;;18.42;15.05;;;1.20;65.60;;;;;;5188435;28;20081;-74
2021/01/26 13:08:32;;;;;;;11.38;10.15;;;1.20;65.60;;;;;;5195502;28;20044;-75
2021/01/26 13:11:21;;;;;;;10.73;9.82;;;1.30;64.60;;;;;;5189384;28;20461;-72
2021/01/26 13:13:52;;;;;;;9.95;9.05;;;1.20;65.30;;;;;;5195597;28;20037;-72
2021/01/26 13:16:24;;;;;;;12.63;11.52;;;1.20;63.70;;;;;;5192496;28;20041;-70
2021/01/26 13:18:56;;;;;;;10.23;9.15;;;1.20;64.50;;;;;;5196415;28;20053;-71
2021/01/26 13:21:27;;;;;;;10.25;9.35;;;1.20;64.70;;;;;;5194378;28;20057;-70
2021/01/26 13:23:59;;;;;;;10.30;9.50;;;1.10;63.10;;;;;;5196760;28;20155;-73
2021/01/26 13:26:31;;;;;;;9.60;8.80;;;1.00;64.40;;;;;;5196039;28;20152;-73
2021/01/26 13:29:04;;;;;;;12.65;11.57;;;1.00;65.40;;;;;;5197066;28;20061;-73
2021/01/26 13:31:35;;;;;;;9.73;8.93;;;1.00;64.90;;;;;;5196042;28;20041;-72
2021/01/26 13:34:07;;;;;;;11.43;10.48;;;1.00;64.60;;;;;;5196266;28;20389;-72
2021/01/26 13:36:39;;;;;;;11.90;10.77;;;1.00;63.90;;;;;;5193694;28;20053;-71
2021/01/26 13:39:10;;;;;;;10.50;9.32;;;0.90;64.00;;;;;;5195125;28;20045;-71
2021/01/26 13:41:45;;;;;;;11.32;10.23;;;0.90;64.40;;;;;;5196035;28;20620;-72
2021/01/26 13:44:18;;;;;;;9.68;8.88;;;0.90;63.80;;;;;;5190452;28;20041;-71